createdAt,value
2019-02-09T00:01:30.543Z,52.52
2019-02-09T00:04:20.171Z,52.44
2019-02-09T00:07:09.994Z,52.43
2019-02-09T00:09:59.422Z,52.54
2019-02-09T00:12:49.183Z,52.57
2019-02-09T00:15:39.243Z,52.46
2019-02-09T00:18:29.186Z,52.37
2019-02-09T00:21:19.292Z,52.50
2019-02-09T00:24:09.297Z,52.58
2019-02-09T00:26:59.515Z,52.37
2019-02-09T00:29:49.045Z,52.21
2019-02-09T00:32:38.937Z,52.30
2019-02-09T00:35:28.998Z,52.23
2019-02-09T00:38:18.420Z,52.48
2019-02-09T00:41:08.208Z,52.26
2019-02-09T00:43:58.144Z,52.30
2019-02-09T00:46:47.638Z,52.14
2019-02-09T00:49:37.603Z,52.26
2019-02-09T00:52:27.241Z,51.99
2019-02-09T00:55:17.208Z,51.87
2019-02-09T00:58:07.082Z,51.17
2019-02-09T01:00:56.924Z,50.78
2019-02-09T01:03:46.713Z,50.71
2019-02-09T01:06:37.139Z,50.63
2019-02-09T01:09:27.202Z,50.50
2019-02-09T01:12:17.088Z,49.95
2019-02-09T01:15:11.212Z,48.82
2019-02-09T01:18:00.843Z,49.40
2019-02-09T01:20:50.900Z,48.61
2019-02-09T01:23:40.967Z,48.82
2019-02-09T01:26:31.092Z,48.36
2019-02-09T01:29:20.983Z,48.27
2019-02-09T01:32:11.171Z,48.76
2019-02-09T01:35:01.152Z,48.58
2019-02-09T01:37:52.687Z,47.17
2019-02-09T01:40:42.742Z,47.58
2019-02-09T01:43:32.942Z,47.58
2019-02-09T01:46:23.086Z,47.50
2019-02-09T01:49:13.226Z,47.63
2019-02-09T01:52:03.080Z,47.76
2019-02-09T01:54:53.063Z,47.69
2019-02-09T01:57:43.067Z,47.87
2019-02-09T02:00:34.719Z,47.38
2019-02-09T02:03:24.656Z,47.62
2019-02-09T02:06:14.931Z,47.88
2019-02-09T02:09:08.254Z,48.17
2019-02-09T02:11:58.343Z,48.09
2019-02-09T02:14:48.159Z,48.20
2019-02-09T02:17:38.056Z,48.52
2019-02-09T02:20:29.664Z,48.27
2019-02-09T02:23:19.658Z,48.49
2019-02-09T02:26:09.614Z,48.74
2019-02-09T02:28:59.770Z,49.02
2019-02-09T02:31:50.181Z,48.81
2019-02-09T02:34:39.933Z,48.99
2019-02-09T02:37:30.157Z,49.20
2019-02-09T02:40:21.797Z,49.12
2019-02-09T02:43:11.848Z,49.12
2019-02-09T02:46:02.134Z,49.42
2019-02-09T02:48:52.222Z,49.61
2019-02-09T02:51:41.978Z,49.46
2019-02-09T02:54:32.062Z,49.29
2019-02-09T02:57:21.914Z,49.45
2019-02-09T03:00:18.210Z,49.71
2019-02-09T03:03:08.044Z,49.85
2019-02-09T03:05:57.662Z,49.85
2019-02-09T03:08:47.471Z,49.82
2019-02-09T03:11:37.466Z,49.88
2019-02-09T03:14:28.085Z,49.83
2019-02-09T03:17:17.534Z,49.80
2019-02-09T03:20:10.523Z,49.81
2019-02-09T03:22:59.995Z,49.43
2019-02-09T03:25:50.467Z,49.41
2019-02-09T03:28:40.493Z,49.84
2019-02-09T03:31:30.974Z,49.56
2019-02-09T03:34:20.988Z,49.63
2019-02-09T03:37:10.851Z,49.63
2019-02-09T03:40:00.479Z,49.23
2019-02-09T03:42:51.068Z,49.11
2019-02-09T03:45:41.340Z,49.23
2019-02-09T03:48:31.218Z,49.01
2019-02-09T03:51:20.942Z,49.06
2019-02-09T03:54:10.564Z,49.12
2019-02-09T03:57:00.184Z,49.01
2019-02-09T03:59:50.217Z,49.06
2019-02-09T04:02:40.119Z,49.11
2019-02-09T04:05:30.694Z,49.29
2019-02-09T04:08:21.627Z,49.52
2019-02-09T04:11:11.299Z,49.38
2019-02-09T04:14:01.096Z,49.52
2019-02-09T04:16:50.843Z,49.47
2019-02-09T04:19:40.627Z,49.25
2019-02-09T04:22:30.747Z,49.17
2019-02-09T04:25:21.664Z,49.33
2019-02-09T04:28:11.237Z,49.27
2019-02-09T04:31:05.827Z,49.42
2019-02-09T04:33:53.844Z,49.54
2019-02-09T04:36:43.824Z,49.59
2019-02-09T04:39:33.928Z,49.65
2019-02-09T04:42:24.083Z,49.60
2019-02-09T04:45:14.833Z,49.65
2019-02-09T04:48:04.575Z,49.48
2019-02-09T04:50:54.664Z,49.83
2019-02-09T04:53:44.823Z,49.83
2019-02-09T04:56:34.737Z,49.93
2019-02-09T04:59:24.412Z,49.85
2019-02-09T05:02:14.264Z,49.83
2019-02-09T05:05:04.747Z,49.87
2019-02-09T05:07:55.285Z,49.78
2019-02-09T05:10:45.317Z,49.70
2019-02-09T05:13:35.104Z,49.86
2019-02-09T05:16:25.165Z,49.82
2019-02-09T05:19:14.972Z,49.76
2019-02-09T05:22:05.354Z,49.87
2019-02-09T05:24:55.079Z,49.81
2019-02-09T05:27:45.090Z,50.03
2019-02-09T05:30:34.895Z,50.06
2019-02-09T05:33:24.396Z,50.03
2019-02-09T05:36:14.376Z,50.12
2019-02-09T05:39:06.305Z,50.24
2019-02-09T05:41:56.325Z,50.16
2019-02-09T05:44:46.598Z,50.46
2019-02-09T05:47:36.568Z,50.52
2019-02-09T05:50:26.796Z,50.79
2019-02-09T05:53:16.670Z,50.98
2019-02-09T05:56:07.468Z,51.34
2019-02-09T05:58:57.480Z,51.52
2019-02-09T06:01:47.284Z,51.69
2019-02-09T06:04:37.401Z,51.86
2019-02-09T06:07:27.314Z,51.88
2019-02-09T06:10:17.800Z,51.89
2019-02-09T06:13:07.680Z,52.11
2019-02-09T06:15:57.649Z,52.18
2019-02-09T06:18:48.815Z,52.39
2019-02-09T06:21:38.819Z,52.44
2019-02-09T06:24:28.679Z,52.61
2019-02-09T06:27:19.098Z,52.82
2019-02-09T06:30:12.767Z,52.84
2019-02-09T06:33:02.846Z,52.90
2019-02-09T06:35:52.588Z,52.89
2019-02-09T06:38:42.604Z,52.92
2019-02-09T06:41:32.015Z,53.12
2019-02-09T06:44:22.150Z,53.12
2019-02-09T06:47:12.177Z,53.13
2019-02-09T06:50:01.948Z,53.17
2019-02-09T06:52:51.888Z,53.25
2019-02-09T06:55:41.672Z,53.52
2019-02-09T06:58:32.492Z,53.42
2019-02-09T07:01:22.956Z,53.38
2019-02-09T07:04:12.585Z,53.40
2019-02-09T07:07:03.198Z,53.51
2019-02-09T07:09:53.101Z,53.65
2019-02-09T07:12:43.125Z,53.67
2019-02-09T07:15:33.540Z,53.71
2019-02-09T07:18:23.594Z,53.83
2019-02-09T07:21:13.458Z,54.19
2019-02-09T07:24:03.686Z,54.30
2019-02-09T07:26:53.924Z,54.52
2019-02-09T07:29:44.369Z,54.72
2019-02-09T07:32:33.742Z,54.71
2019-02-09T07:35:23.909Z,54.84
2019-02-09T07:38:13.278Z,54.92
2019-02-09T07:41:03.501Z,54.80
2019-02-09T07:43:53.085Z,54.83
2019-02-09T07:46:42.963Z,54.72
2019-02-09T07:49:32.402Z,54.64
2019-02-09T07:52:22.154Z,54.05
2019-02-09T07:55:14.211Z,53.51
2019-02-09T07:58:05.008Z,52.66
2019-02-09T08:00:54.902Z,52.57
2019-02-09T08:03:44.913Z,52.19
2019-02-09T08:06:34.895Z,51.92
2019-02-09T08:09:24.771Z,52.06
2019-02-09T08:12:14.725Z,52.00
2019-02-09T08:15:06.345Z,52.08
2019-02-09T08:17:56.270Z,52.34
2019-02-09T08:20:46.418Z,51.82
2019-02-09T08:23:37.984Z,50.67
2019-02-09T08:26:27.769Z,49.24
2019-02-09T08:29:17.628Z,48.29
2019-02-09T08:32:12.493Z,47.85
2019-02-09T08:34:59.401Z,48.07
2019-02-09T08:37:49.601Z,48.29
2019-02-09T08:40:40.204Z,49.06
2019-02-09T08:43:30.094Z,49.21
2019-02-09T08:46:19.658Z,49.40
2019-02-09T08:49:09.283Z,49.39
2019-02-09T08:51:59.110Z,49.42
2019-02-09T08:54:48.770Z,49.48
2019-02-09T08:57:39.073Z,48.91
2019-02-09T09:00:31.757Z,47.80
2019-02-09T09:03:21.788Z,48.22
2019-02-09T09:06:11.934Z,48.05
2019-02-09T09:09:01.945Z,47.77
2019-02-09T09:11:53.154Z,47.70
2019-02-09T09:14:43.093Z,48.89
2019-02-09T09:17:33.040Z,48.56
2019-02-09T09:20:27.137Z,47.99
2019-02-09T09:23:16.945Z,46.98
2019-02-09T09:26:07.346Z,46.09
2019-02-09T09:28:58.239Z,44.61
2019-02-09T09:31:48.128Z,44.33
2019-02-09T09:34:38.536Z,44.34
2019-02-09T09:37:28.715Z,45.26
2019-02-09T09:40:20.828Z,45.79
2019-02-09T09:43:10.690Z,45.73
2019-02-09T09:46:00.387Z,46.58
2019-02-09T09:48:50.348Z,47.25
2019-02-09T09:51:40.194Z,47.52
2019-02-09T09:54:30.003Z,47.88
2019-02-09T09:57:19.472Z,48.32
2019-02-09T10:00:12.436Z,48.40
2019-02-09T10:03:02.038Z,48.34
2019-02-09T10:05:51.898Z,48.39
2019-02-09T10:08:41.927Z,48.40
2019-02-09T10:11:33.008Z,46.66
2019-02-09T10:14:22.982Z,45.60
2019-02-09T10:17:13.374Z,44.22
2019-02-09T10:20:03.556Z,43.76
2019-02-09T10:22:53.929Z,43.84
2019-02-09T10:25:43.644Z,43.06
2019-02-09T10:28:33.458Z,42.06
2019-02-09T10:31:23.397Z,41.88
2019-02-09T10:34:13.450Z,42.18
2019-02-09T10:37:03.737Z,41.90
2019-02-09T10:39:53.520Z,42.40
2019-02-09T10:42:43.647Z,42.41
2019-02-09T10:45:33.928Z,42.58
2019-02-09T10:48:23.948Z,42.77
2019-02-09T10:51:14.021Z,42.76
2019-02-09T10:54:04.459Z,42.63
2019-02-09T10:56:54.662Z,42.91
2019-02-09T10:59:44.290Z,41.66
2019-02-09T11:02:33.901Z,40.32
2019-02-09T11:05:23.983Z,40.18
2019-02-09T11:08:14.154Z,39.58
2019-02-09T11:11:04.888Z,39.55
2019-02-09T11:13:54.722Z,39.02
2019-02-09T11:16:44.792Z,39.32
2019-02-09T11:19:34.652Z,39.91
2019-02-09T11:22:25.122Z,39.53
2019-02-09T11:25:16.270Z,40.86
2019-02-09T11:28:06.850Z,41.00
2019-02-09T11:30:56.761Z,41.76
2019-02-09T11:33:46.329Z,42.56
2019-02-09T11:36:36.056Z,43.10
2019-02-09T11:39:26.017Z,43.17
2019-02-09T11:42:15.631Z,41.26
2019-02-09T11:45:07.940Z,40.00
2019-02-09T11:47:58.074Z,37.48
2019-02-09T11:50:47.916Z,35.03
2019-02-09T11:53:40.687Z,34.13
2019-02-09T11:56:30.520Z,33.20
2019-02-09T11:59:21.366Z,31.07
2019-02-09T12:02:11.203Z,31.58
2019-02-09T12:05:01.035Z,30.88
2019-02-09T12:07:51.550Z,30.73
2019-02-09T12:10:41.186Z,29.94
2019-02-09T12:13:30.779Z,28.53
2019-02-09T12:16:21.379Z,28.84
2019-02-09T12:19:11.084Z,29.37
2019-02-09T12:22:00.790Z,29.42
2019-02-09T12:24:50.582Z,29.40
2019-02-09T12:27:40.064Z,30.06
2019-02-09T12:30:33.974Z,30.17
2019-02-09T12:33:23.742Z,30.51
2019-02-09T12:36:13.485Z,30.17
2019-02-09T12:39:03.803Z,29.84
2019-02-09T12:41:54.161Z,30.65
2019-02-09T12:44:44.007Z,30.99
2019-02-09T12:47:33.766Z,31.40
2019-02-09T12:50:24.930Z,32.24
2019-02-09T12:53:15.215Z,33.15
2019-02-09T12:56:05.577Z,33.83
2019-02-09T12:58:55.661Z,34.81
2019-02-09T13:01:45.518Z,34.88
2019-02-09T13:04:35.305Z,35.19
2019-02-09T13:07:25.374Z,35.82
2019-02-09T13:10:16.028Z,35.78
2019-02-09T13:13:06.349Z,36.72
2019-02-09T13:15:57.715Z,36.92
2019-02-09T13:18:47.215Z,37.11
2019-02-09T13:21:37.264Z,37.38
2019-02-09T13:24:26.867Z,37.42
2019-02-09T13:27:16.610Z,37.59
2019-02-09T13:30:11.117Z,37.77
2019-02-09T13:33:01.041Z,37.55
2019-02-09T13:35:51.254Z,37.84
2019-02-09T13:38:40.899Z,38.26
2019-02-09T13:41:31.139Z,38.38
2019-02-09T13:44:20.829Z,38.55
2019-02-09T13:47:10.803Z,38.71
2019-02-09T13:50:00.867Z,39.02
2019-02-09T13:52:50.891Z,39.18
2019-02-09T13:55:40.825Z,39.57
2019-02-09T13:58:30.620Z,39.39
2019-02-09T14:01:20.155Z,39.71
2019-02-09T14:04:09.765Z,39.79
2019-02-09T14:07:00.229Z,40.03
2019-02-09T14:09:49.875Z,40.41
2019-02-09T14:12:40.724Z,40.51
2019-02-09T14:15:32.368Z,40.42
2019-02-09T14:18:22.408Z,40.65
2019-02-09T14:21:11.801Z,40.86
2019-02-09T14:24:01.432Z,41.20
2019-02-09T14:26:52.291Z,41.30
2019-02-09T14:29:42.629Z,40.97
2019-02-09T14:32:32.694Z,41.65
2019-02-09T14:35:23.569Z,41.59
2019-02-09T14:38:13.797Z,41.75
2019-02-09T14:41:03.564Z,41.82
2019-02-09T14:43:53.598Z,42.06
2019-02-09T14:46:44.166Z,42.32
2019-02-09T14:49:34.219Z,42.17
2019-02-09T14:52:24.383Z,42.16
2019-02-09T14:55:21.847Z,41.97
2019-02-09T14:58:12.196Z,42.01
2019-02-09T15:01:01.982Z,42.13
2019-02-09T15:03:51.875Z,42.26
2019-02-09T15:06:41.763Z,42.28
2019-02-09T15:09:31.567Z,42.20
2019-02-09T15:12:21.763Z,42.43
2019-02-09T15:15:20.611Z,42.43
2019-02-09T15:18:11.627Z,42.59
2019-02-09T15:21:02.581Z,42.71
2019-02-09T15:23:52.390Z,42.84
2019-02-09T15:26:42.399Z,42.88
2019-02-09T15:29:32.804Z,42.78
2019-02-09T15:32:22.415Z,42.80
2019-02-09T15:35:13.923Z,42.99
2019-02-09T15:38:03.774Z,42.95
2019-02-09T15:40:54.038Z,43.16
2019-02-09T15:43:43.994Z,43.22
2019-02-09T15:46:33.781Z,43.34
2019-02-09T15:49:23.891Z,43.21
2019-02-09T15:52:14.220Z,43.36
2019-02-09T15:55:04.470Z,43.33
2019-02-09T15:57:54.749Z,43.67
2019-02-09T16:00:44.831Z,43.64
2019-02-09T16:03:34.702Z,43.70
2019-02-09T16:06:24.756Z,43.72
2019-02-09T16:09:14.552Z,43.87
2019-02-09T16:12:03.902Z,44.01
2019-02-09T16:14:53.616Z,44.09
2019-02-09T16:17:43.912Z,44.06
2019-02-09T16:20:33.597Z,44.26
2019-02-09T16:23:23.444Z,44.21
2019-02-09T16:26:12.837Z,44.41
2019-02-09T16:29:02.606Z,44.51
2019-02-09T16:31:52.703Z,44.46
2019-02-09T16:34:42.179Z,44.41
2019-02-09T16:37:31.734Z,44.62
2019-02-09T16:40:25.402Z,44.91
2019-02-09T16:43:15.397Z,45.25
2019-02-09T16:46:05.093Z,45.42
2019-02-09T16:48:55.002Z,45.59
2019-02-09T16:51:44.995Z,45.70
2019-02-09T16:54:35.113Z,46.05
2019-02-09T16:57:24.854Z,46.27
2019-02-09T17:00:37.997Z,46.49
2019-02-09T17:03:27.983Z,46.94
2019-02-09T17:06:17.593Z,47.36
2019-02-09T17:09:10.289Z,47.63
2019-02-09T17:11:59.869Z,47.69
2019-02-09T17:14:50.023Z,48.19
2019-02-09T17:17:40.246Z,48.43
2019-02-09T17:20:30.739Z,48.75
2019-02-09T17:23:21.260Z,48.92
2019-02-09T17:26:10.585Z,49.04
2019-02-09T17:29:00.095Z,49.16
2019-02-09T17:31:49.966Z,49.33
2019-02-09T17:34:41.132Z,49.44
2019-02-09T17:37:31.150Z,49.48
2019-02-09T17:40:27.758Z,49.51
2019-02-09T17:43:17.509Z,49.59
2019-02-09T17:46:16.672Z,49.54
2019-02-09T17:49:06.074Z,49.71
2019-02-09T17:51:55.901Z,49.71
2019-02-09T17:54:46.173Z,49.62
2019-02-09T17:57:36.060Z,49.60
2019-02-09T18:00:32.711Z,49.68
2019-02-09T18:03:22.766Z,49.67
2019-02-09T18:06:12.957Z,49.81
2019-02-09T18:09:02.718Z,49.81
2019-02-09T18:11:54.666Z,49.84
2019-02-09T18:14:45.891Z,49.92
2019-02-09T18:17:35.758Z,50.01
2019-02-09T18:20:25.607Z,50.01
2019-02-09T18:23:16.028Z,50.00
2019-02-09T18:26:06.909Z,50.06
2019-02-09T18:28:56.673Z,50.10
2019-02-09T18:31:46.554Z,50.12
2019-02-09T18:34:36.562Z,50.09
2019-02-09T18:37:26.533Z,50.22
2019-02-09T18:40:21.539Z,50.27
2019-02-09T18:43:10.959Z,50.28
2019-02-09T18:46:00.241Z,50.37
2019-02-09T18:48:49.652Z,50.42
2019-02-09T18:51:39.418Z,50.74
2019-02-09T18:54:28.969Z,50.76
2019-02-09T18:57:18.573Z,50.69
2019-02-09T19:00:10.666Z,50.74
2019-02-09T19:03:00.408Z,50.91
2019-02-09T19:05:50.270Z,51.04
2019-02-09T19:08:40.201Z,51.11
2019-02-09T19:11:30.027Z,51.27
2019-02-09T19:14:20.689Z,51.37
2019-02-09T19:17:11.504Z,51.47
2019-02-09T19:20:01.598Z,51.52
2019-02-09T19:22:51.198Z,51.50
2019-02-09T19:25:41.047Z,51.55
2019-02-09T19:28:31.132Z,51.79
2019-02-09T19:31:21.231Z,51.81
2019-02-09T19:34:11.184Z,51.87
2019-02-09T19:37:00.767Z,51.84
2019-02-09T19:39:50.820Z,51.79
2019-02-09T19:42:40.309Z,51.77
2019-02-09T19:45:32.443Z,51.80
2019-02-09T19:48:22.301Z,51.84
2019-02-09T19:51:11.674Z,51.78
2019-02-09T19:54:01.681Z,51.74
2019-02-09T19:56:51.799Z,51.76
2019-02-09T19:59:41.841Z,51.63
2019-02-09T20:02:31.652Z,51.70
2019-02-09T20:05:21.486Z,51.64
2019-02-09T20:08:13.006Z,51.64
2019-02-09T20:11:02.600Z,51.63
2019-02-09T20:13:52.205Z,51.59
2019-02-09T20:16:42.155Z,51.54
2019-02-09T20:19:32.186Z,51.61
2019-02-09T20:22:22.418Z,51.56
2019-02-09T20:25:16.982Z,51.59
2019-02-09T20:28:07.909Z,51.65
2019-02-09T20:30:57.955Z,51.53
2019-02-09T20:33:48.200Z,51.55
2019-02-09T20:36:37.969Z,51.65
2019-02-09T20:39:27.546Z,51.72
2019-02-09T20:42:17.694Z,51.78
2019-02-09T20:45:10.303Z,51.76
2019-02-09T20:47:59.977Z,51.76
2019-02-09T20:50:50.009Z,51.79
2019-02-09T20:53:39.411Z,51.95
2019-02-09T20:56:29.209Z,51.93
2019-02-09T20:59:19.066Z,51.98
2019-02-09T21:02:09.453Z,51.99
2019-02-09T21:05:00.839Z,52.00
2019-02-09T21:07:51.323Z,51.96
2019-02-09T21:10:41.199Z,51.96
2019-02-09T21:13:30.737Z,52.04
2019-02-09T21:16:20.668Z,52.02
2019-02-09T21:19:09.972Z,52.19
2019-02-09T21:22:00.271Z,52.25
2019-02-09T21:24:49.369Z,52.43
2019-02-09T21:27:39.512Z,52.45
2019-02-09T21:30:29.756Z,52.56
2019-02-09T21:33:19.682Z,52.69
2019-02-09T21:36:09.668Z,52.80
2019-02-09T21:38:59.359Z,52.83
2019-02-09T21:41:49.055Z,52.88
2019-02-09T21:44:39.329Z,52.93
2019-02-09T21:47:29.941Z,52.92
2019-02-09T21:50:26.257Z,53.08
2019-02-09T21:53:15.295Z,53.07
2019-02-09T21:56:04.812Z,53.13
2019-02-09T21:58:54.863Z,53.37
2019-02-09T22:01:45.065Z,53.45
2019-02-09T22:04:35.089Z,53.47
2019-02-09T22:07:25.127Z,53.47
2019-02-09T22:10:18.723Z,53.52
2019-02-09T22:13:09.010Z,53.47
2019-02-09T22:15:58.549Z,53.47
2019-02-09T22:18:48.602Z,53.43
2019-02-09T22:21:38.480Z,53.58
2019-02-09T22:24:28.460Z,53.55
2019-02-09T22:27:18.615Z,53.71
2019-02-09T22:30:11.095Z,53.88
2019-02-09T22:33:00.994Z,54.15
2019-02-09T22:35:50.182Z,54.28
2019-02-09T22:38:39.956Z,54.67
2019-02-09T22:41:29.394Z,54.57
2019-02-09T22:44:19.508Z,54.57
2019-02-09T22:47:12.569Z,54.57
2019-02-09T22:50:02.674Z,54.55
2019-02-09T22:52:52.995Z,54.63
2019-02-09T22:55:43.445Z,54.69
2019-02-09T22:58:33.333Z,54.99
2019-02-09T23:01:45.190Z,54.91
2019-02-09T23:04:56.638Z,55.14
2019-02-09T23:07:46.705Z,55.14
2019-02-09T23:10:36.427Z,55.29
2019-02-09T23:13:26.954Z,55.51
2019-02-09T23:16:17.102Z,55.31
2019-02-09T23:19:07.501Z,55.43
2019-02-09T23:21:57.813Z,55.44
2019-02-09T23:24:48.102Z,55.54
2019-02-09T23:27:38.270Z,55.57
2019-02-09T23:30:28.646Z,55.64
2019-02-09T23:33:18.490Z,55.69
2019-02-09T23:36:15.995Z,55.67
2019-02-09T23:39:00.046Z,55.71
2019-02-09T23:41:50.117Z,55.96
2019-02-09T23:44:39.646Z,56.09
2019-02-09T23:47:29.792Z,56.11
2019-02-09T23:50:20.075Z,56.20
2019-02-09T23:53:13.367Z,56.28
2019-02-09T23:56:03.927Z,56.23
2019-02-09T23:58:53.741Z,56.13
